Time;durP1;ratioP1;P1;durP2;ratioP2;P2;SDS_P1;SDS_P2;PMS_P1;PMS_P2;Temp;Humidity;BMP_temperature;BMP_pressure;BME280_temperature;BME280_humidity;BME280_pressure;Samples;Min_cycle;Max_cycle;Signal;HPM_P1;HPM_P2
2023/10/09 00:02:19;;;;;;;9.20;4.25;;;20.50;99.90;;;;;;10527896;28;21211;-38
2023/10/09 00:07:30;;;;;;;11.90;3.10;;;20.20;99.90;;;;;;10522861;28;20456;-32
2023/10/09 00:12:32;;;;;;;8.68;3.75;;;19.90;99.90;;;;;;10528400;28;20056;-35
2023/10/09 00:17:34;;;;;;;15.80;4.20;;;20.00;99.90;;;;;;10523031;28;20138;-32
2023/10/09 00:22:43;;;;;;;6.88;3.83;;;20.70;99.90;;;;;;10517160;28;20045;-38
2023/10/09 00:27:46;;;;;;;12.00;4.18;;;20.40;99.90;;;;;;10529286;28;20447;-35
2023/10/09 00:32:59;;;;;;;8.35;3.42;;;20.20;99.90;;;;;;10520726;28;20735;-31
2023/10/09 00:38:10;;;;;;;10.57;3.90;;;20.10;99.90;;;;;;10514252;28;20068;-34
2023/10/09 00:43:13;;;;;;;10.10;4.23;;;20.40;99.90;;;;;;10532763;28;20144;-34
2023/10/09 00:48:22;;;;;;;14.45;4.20;;;20.10;99.90;;;;;;10523155;28;20032;-34
2023/10/09 00:53:32;;;;;;;9.70;3.60;;;20.20;99.90;;;;;;10521044;28;20130;-43
2023/10/09 00:58:35;;;;;;;8.52;4.00;;;19.90;99.90;;;;;;10513581;28;20396;-34
2023/10/09 01:03:40;;;;;;;7.15;3.15;;;20.10;99.90;;;;;;10518898;28;20059;-38
2023/10/09 01:08:48;;;;;;;10.35;3.50;;;19.90;99.90;;;;;;10530134;28;20136;-33
2023/10/09 01:13:55;;;;;;;7.35;3.55;;;19.90;99.90;;;;;;10524566;28;20052;-33
2023/10/09 01:18:57;;;;;;;5.97;2.70;;;20.20;99.90;;;;;;10525825;28;20101;-36
2023/10/09 01:24:04;;;;;;;7.10;3.00;;;20.40;99.90;;;;;;10521949;28;20634;-37
2023/10/09 01:29:10;;;;;;;12.82;3.90;;;20.30;99.90;;;;;;10535407;28;20054;-40
2023/10/09 01:34:13;;;;;;;11.10;4.53;;;20.20;99.90;;;;;;10523371;28;20056;-40
2023/10/09 01:39:23;;;;;;;7.72;3.78;;;19.80;99.90;;;;;;10537678;28;20048;-36
2023/10/09 01:44:27;;;;;;;7.88;3.08;;;19.80;99.90;;;;;;10532593;28;20443;-40
2023/10/09 01:49:32;;;;;;;4.82;2.00;;;19.70;99.90;;;;;;10517955;28;20477;-37
2023/10/09 01:54:37;;;;;;;8.55;3.55;;;20.80;99.90;;;;;;10516780;28;20123;-35
2023/10/09 01:59:43;;;;;;;6.32;2.58;;;20.70;99.90;;;;;;10529600;28;20135;-34
2023/10/09 02:04:45;;;;;;;4.15;2.63;;;20.70;99.90;;;;;;10531963;28;20483;-37
2023/10/09 02:09:48;;;;;;;;;;;21.40;99.90;;;;;;10518972;28;20044;-37
2023/10/09 02:14:53;;;;;;;10.48;3.78;;;21.10;99.90;;;;;;10517596;28;19920;-32
2023/10/09 02:19:57;;;;;;;6.00;2.65;;;20.80;99.90;;;;;;10528370;28;20051;-30
2023/10/09 02:25:05;;;;;;;13.68;4.38;;;20.80;99.90;;;;;;10507268;28;20469;-38
2023/10/09 02:30:17;;;;;;;12.48;4.43;;;20.30;99.90;;;;;;10516468;28;20139;-32
2023/10/09 02:35:31;;;;;;;16.17;4.65;;;20.40;99.90;;;;;;10536924;28;20047;-37
2023/10/09 02:40:40;;;;;;;11.52;4.03;;;20.90;99.90;;;;;;10534630;28;20396;-32
2023/10/09 02:45:50;;;;;;;7.40;2.55;;;20.60;99.90;;;;;;10534937;28;20059;-38
2023/10/09 02:50:51;;;;;;;8.30;3.67;;;20.50;99.90;;;;;;10532697;28;20051;-33
2023/10/09 02:56:11;;;;;;;11.30;3.08;;;20.60;99.90;;;;;;10529671;28;20091;-29
2023/10/09 03:15:35;;;;;;;12.93;4.90;;;20.00;99.90;;;;;;10555463;27;20129;-32
2023/10/09 03:20:37;;;;;;;8.70;4.28;;;20.40;99.90;;;;;;10536182;28;20079;-32
2023/10/09 03:25:39;;;;;;;12.70;5.50;;;20.10;99.90;;;;;;10529863;28;20158;-32
2023/10/09 03:30:46;;;;;;;8.73;4.65;;;19.50;99.90;;;;;;10522172;28;20163;-32
2023/10/09 03:35:49;;;;;;;13.23;4.93;;;19.40;99.90;;;;;;10505879;28;20048;-31
2023/10/09 03:40:51;;;;;;;6.93;4.35;;;19.70;99.90;;;;;;10521186;28;20052;-32
2023/10/09 03:45:56;;;;;;;14.10;4.35;;;19.40;99.90;;;;;;10518996;28;20109;-33
2023/10/09 03:51:08;;;;;;;13.13;4.25;;;19.40;99.90;;;;;;10517703;28;20077;-38
2023/10/09 03:56:12;;;;;;;14.97;4.53;;;19.30;99.90;;;;;;10513698;28;20048;-34
2023/10/09 04:01:22;;;;;;;7.45;3.40;;;19.20;99.90;;;;;;10525222;28;20060;-36
2023/10/09 04:06:28;;;;;;;15.32;4.50;;;19.40;99.90;;;;;;10525567;28;20063;-38
2023/10/09 04:11:33;;;;;;;16.25;5.57;;;19.60;99.90;;;;;;10516437;28;20067;-32
2023/10/09 04:16:51;;;;;;;18.40;6.05;;;19.80;99.90;;;;;;10526536;28;20158;-36
2023/10/09 04:21:55;;;;;;;13.43;4.85;;;19.30;99.90;;;;;;10519619;28;20043;-39
2023/10/09 04:26:57;;;;;;;9.80;4.07;;;19.50;99.90;;;;;;10500249;28;20048;-32
2023/10/09 04:32:00;;;;;;;11.13;4.22;;;19.70;99.90;;;;;;10491968;28;20473;-35
2023/10/09 04:37:19;;;;;;;13.98;5.03;;;20.00;99.90;;;;;;10500446;28;20079;-46
2023/10/09 04:42:36;;;;;;;12.73;4.40;;;19.70;99.90;;;;;;10493355;28;20378;-34
2023/10/09 04:47:49;;;;;;;10.85;5.53;;;19.90;99.90;;;;;;10489224;28;20032;-33
2023/10/09 04:52:53;;;;;;;8.95;4.65;;;19.40;99.90;;;;;;10492647;28;20055;-33
2023/10/09 04:58:02;;;;;;;10.88;4.78;;;19.80;99.90;;;;;;10492188;28;20052;-32
2023/10/09 05:03:10;;;;;;;7.90;3.78;;;19.30;99.90;;;;;;10478098;28;20515;-33
2023/10/09 05:08:19;;;;;;;12.20;4.13;;;19.50;99.90;;;;;;10485860;28;20153;-37
2023/10/09 05:13:42;;;;;;;14.48;3.75;;;20.40;99.90;;;;;;10491258;28;20058;-33
2023/10/09 05:18:45;;;;;;;17.10;4.38;;;19.90;99.90;;;;;;10503828;28;20048;-32
2023/10/09 05:23:48;;;;;;;10.90;4.18;;;20.20;99.90;;;;;;10487581;28;20061;-36
2023/10/09 05:28:52;;;;;;;8.00;3.55;;;20.80;99.90;;;;;;10494970;28;20160;-34
2023/10/09 05:34:01;;;;;;;7.57;3.30;;;20.80;99.90;;;;;;10489206;28;20063;-40
2023/10/09 05:49:46;;;;;;;10.75;3.92;;;20.90;99.90;;;;;;10480847;28;20048;-39
2023/10/09 06:05:50;;;;;;;14.13;3.63;;;20.50;99.90;;;;;;10488193;28;20040;-32
2023/10/09 06:11:06;;;;;;;11.93;3.85;;;20.70;99.90;;;;;;10490910;28;20051;-35
2023/10/09 06:16:31;;;;;;;11.98;5.47;;;20.70;99.90;;;;;;10478841;28;20087;-37
2023/10/09 06:22:19;;;;;;;9.30;4.03;;;19.90;99.90;;;;;;10486365;28;20115;-33
2023/10/09 06:27:24;;;;;;;14.95;4.47;;;20.10;99.90;;;;;;10481385;28;20057;-31
2023/10/09 06:32:37;;;;;;;11.25;3.47;;;19.80;99.90;;;;;;10484935;28;20564;-32
2023/10/09 06:38:19;;;;;;;10.43;3.97;;;19.80;99.90;;;;;;10487414;28;20059;-35
2023/10/09 06:43:07;;;;;;;8.45;3.38;;;21.00;99.90;;;;;;10489656;28;20586;-32
2023/10/09 06:48:40;;;;;;;18.55;5.18;;;21.00;99.90;;;;;;10484257;28;20048;-37
2023/10/09 06:58:54;;;;;;;9.30;3.63;;;20.90;99.90;;;;;;10488585;28;20439;-36
2023/10/09 07:04:10;;;;;;;8.43;3.35;;;21.00;99.90;;;;;;10498628;28;20045;-43
2023/10/09 07:09:19;;;;;;;11.40;4.13;;;21.70;99.90;;;;;;10488100;28;20056;-35
2023/10/09 07:15:01;;;;;;;12.88;3.95;;;21.80;99.90;;;;;;10489181;28;20524;-32
2023/10/09 07:20:13;;;;;;;15.73;4.93;;;21.60;99.90;;;;;;10497256;28;20497;-37
2023/10/09 07:25:27;;;;;;;10.68;5.00;;;20.80;99.90;;;;;;10491618;28;20466;-32
2023/10/09 07:30:38;;;;;;;10.80;4.38;;;20.40;99.90;;;;;;10502557;28;20056;-33
2023/10/09 07:35:47;;;;;;;16.73;5.13;;;20.70;99.90;;;;;;10484370;28;20139;-36
2023/10/09 07:40:59;;;;;;;14.30;6.70;;;19.80;99.90;;;;;;10500706;28;20049;-32
2023/10/09 07:51:22;;;;;;;13.95;4.78;;;20.00;99.90;;;;;;10473833;28;20125;-30
2023/10/09 07:56:30;;;;;;;17.02;5.63;;;20.50;99.90;;;;;;10462261;28;20469;-33
2023/10/09 08:01:38;;;;;;;8.82;4.05;;;20.10;99.90;;;;;;10498549;28;20051;-31
2023/10/09 08:06:39;;;;;;;7.00;3.72;;;20.20;99.90;;;;;;10489602;28;20545;-31
2023/10/09 08:12:13;;;;;;;10.80;4.18;;;20.20;99.90;;;;;;10504745;28;20497;-34
2023/10/09 08:17:17;;;;;;;14.07;4.47;;;20.60;99.90;;;;;;10490495;28;20048;-39
2023/10/09 08:22:42;;;;;;;16.55;5.40;;;20.50;99.90;;;;;;10493737;28;20052;-32
2023/10/09 08:27:54;;;;;;;12.05;5.28;;;20.90;99.90;;;;;;10481502;28;20137;-34
2023/10/09 08:33:02;;;;;;;9.07;4.18;;;21.10;99.90;;;;;;10484027;28;20756;-38
2023/10/09 08:38:08;;;;;;;7.50;3.20;;;20.80;99.90;;;;;;10494443;28;20048;-31
2023/10/09 08:43:16;;;;;;;13.23;4.30;;;21.40;99.90;;;;;;10492658;28;20124;-36
2023/10/09 08:48:18;;;;;;;14.32;5.00;;;20.80;99.90;;;;;;10488069;28;20063;-36
2023/10/09 08:53:19;;;;;;;22.08;5.18;;;20.80;99.90;;;;;;10488675;28;20070;-36
2023/10/09 08:58:30;;;;;;;10.57;3.83;;;20.90;99.90;;;;;;10488932;28;20075;-35
2023/10/09 09:03:40;;;;;;;12.93;4.53;;;20.30;99.90;;;;;;10493243;28;20048;-37
2023/10/09 09:08:45;;;;;;;7.82;3.40;;;20.90;99.90;;;;;;10503222;28;20106;-37
2023/10/09 09:14:04;;;;;;;13.68;4.47;;;21.00;99.90;;;;;;10494431;28;20056;-41
2023/10/09 09:19:17;;;;;;;11.25;4.55;;;20.20;99.90;;;;;;10478949;28;20051;-35
2023/10/09 09:24:26;;;;;;;13.48;4.35;;;20.70;99.90;;;;;;10495184;28;20135;-35
2023/10/09 09:29:41;;;;;;;13.95;4.00;;;20.70;99.90;;;;;;10486237;28;20418;-39
2023/10/09 09:34:48;;;;;;;6.53;2.75;;;20.90;99.90;;;;;;10497692;28;20106;-35
2023/10/09 09:39:51;;;;;;;6.47;2.85;;;21.80;99.90;;;;;;10483112;28;20462;-35
2023/10/09 09:44:57;;;;;;;7.35;3.13;;;21.70;99.90;;;;;;10500213;28;20491;-37
2023/10/09 09:50:05;;;;;;;10.57;3.97;;;21.60;99.90;;;;;;10488452;28;20052;-36
2023/10/09 09:55:14;;;;;;;11.82;3.65;;;20.70;99.90;;;;;;10496457;28;20521;-32
2023/10/09 10:00:29;;;;;;;12.15;4.25;;;21.40;99.90;;;;;;10498152;28;20473;-33
2023/10/09 10:05:33;;;;;;;8.85;4.00;;;20.60;99.90;;;;;;10479484;28;20156;-35
2023/10/09 10:10:39;;;;;;;13.30;4.28;;;20.60;99.90;;;;;;10500144;28;20072;-27
2023/10/09 10:16:09;;;;;;;10.15;3.70;;;20.90;99.90;;;;;;10489987;28;20409;-33
2023/10/09 10:21:16;;;;;;;10.25;4.03;;;20.70;99.90;;;;;;10483285;28;20043;-34
2023/10/09 10:26:25;;;;;;;10.00;3.78;;;20.80;99.90;;;;;;10480180;28;20462;-32
2023/10/09 10:31:57;;;;;;;10.23;4.15;;;22.10;99.90;;;;;;10481139;28;20074;-33
2023/10/09 10:36:59;;;;;;;11.07;4.57;;;21.70;99.90;;;;;;10477560;28;20118;-36
2023/10/09 10:42:04;;;;;;;9.50;4.18;;;21.00;99.90;;;;;;10482462;28;20049;-35
2023/10/09 10:47:22;;;;;;;8.00;3.95;;;21.10;99.90;;;;;;10479980;28;20059;-41
2023/10/09 10:52:35;;;;;;;13.23;4.38;;;20.90;99.90;;;;;;10482201;28;20128;-33
2023/10/09 10:58:00;;;;;;;7.53;4.43;;;20.70;99.90;;;;;;10483556;28;20055;-33
2023/10/09 11:03:17;;;;;;;10.80;3.40;;;20.90;99.90;;;;;;10478448;28;20075;-38
2023/10/09 11:08:24;;;;;;;9.07;2.70;;;21.80;99.90;;;;;;10483410;28;20129;-33
2023/10/09 11:13:33;;;;;;;12.00;4.35;;;21.70;99.90;;;;;;10481438;28;20084;-37
2023/10/09 11:18:42;;;;;;;9.90;3.88;;;22.00;99.90;;;;;;10485213;28;20094;-40
2023/10/09 11:23:57;;;;;;;9.65;4.45;;;21.90;99.90;;;;;;10488611;28;20136;-46
2023/10/09 11:29:23;;;;;;;10.35;3.88;;;21.60;99.90;;;;;;10492094;28;20047;-35
2023/10/09 11:34:31;;;;;;;11.15;4.32;;;21.90;99.90;;;;;;10496032;28;20471;-37
2023/10/09 11:39:52;;;;;;;12.85;4.85;;;22.10;99.90;;;;;;10487732;28;20045;-38
2023/10/09 11:44:55;;;;;;;9.02;4.25;;;21.20;99.90;;;;;;10477178;28;20040;-42
2023/10/09 11:50:12;;;;;;;9.05;4.30;;;21.20;99.90;;;;;;10489185;28;20055;-33
2023/10/09 11:55:15;;;;;;;8.40;4.03;;;21.40;99.90;;;;;;10490212;28;20045;-34
2023/10/09 12:00:28;;;;;;;10.73;4.60;;;21.60;99.90;;;;;;10485630;28;20045;-35
2023/10/09 12:05:32;;;;;;;11.07;3.85;;;21.70;99.90;;;;;;10491408;28;20075;-32
2023/10/09 12:10:34;;;;;;;12.80;4.07;;;22.30;99.90;;;;;;10485618;28;20808;-37
2023/10/09 12:15:38;;;;;;;7.97;3.35;;;22.30;99.90;;;;;;10489498;28;20044;-32
2023/10/09 12:20:42;;;;;;;9.13;3.60;;;21.90;99.90;;;;;;10486919;28;20041;-39
2023/10/09 12:25:45;;;;;;;13.25;4.10;;;22.30;99.90;;;;;;10487392;28;20045;-36
2023/10/09 12:30:50;;;;;;;9.18;3.25;;;22.60;99.90;;;;;;10490592;28;20393;-38
2023/10/09 12:35:53;;;;;;;8.30;4.38;;;21.60;99.90;;;;;;10490921;28;20052;-39
2023/10/09 12:41:07;;;;;;;12.63;4.43;;;21.20;99.90;;;;;;10507129;28;20053;-38
2023/10/09 12:46:09;;;;;;;8.70;3.95;;;21.60;99.90;;;;;;10488068;28;20168;-34
2023/10/09 12:51:16;;;;;;;14.02;4.43;;;22.10;99.90;;;;;;10487991;28;20040;-37
2023/10/09 12:56:18;;;;;;;10.13;3.10;;;21.30;99.90;;;;;;10490005;28;20110;-34
2023/10/09 13:01:20;;;;;;;7.22;3.35;;;22.40;99.90;;;;;;10485319;28;20469;-42
2023/10/09 13:06:24;;;;;;;16.15;4.50;;;22.60;99.90;;;;;;10492820;28;20044;-33
2023/10/09 13:11:26;;;;;;;14.65;4.97;;;22.40;99.90;;;;;;10490819;28;20062;-37
2023/10/09 13:16:28;;;;;;;13.98;4.53;;;21.80;99.90;;;;;;10490649;28;20145;-32
2023/10/09 13:21:32;;;;;;;16.33;4.65;;;22.70;99.50;;;;;;10489790;28;20114;-31
2023/10/09 13:26:34;;;;;;;12.60;4.32;;;22.40;99.90;;;;;;10480539;28;20053;-32
2023/10/09 13:31:37;;;;;;;9.95;3.83;;;22.30;99.90;;;;;;10484842;28;20045;-34
2023/10/09 13:36:45;;;;;;;15.25;4.45;;;22.60;99.90;;;;;;10490160;28;20214;-41
2023/10/09 13:41:47;;;;;;;6.60;4.22;;;23.10;99.00;;;;;;10487237;28;20071;-39
2023/10/09 13:46:50;;;;;;;11.00;4.53;;;23.60;97.80;;;;;;10488138;28;20056;-30
2023/10/09 13:51:56;;;;;;;11.80;4.03;;;23.50;96.90;;;;;;10495751;28;20087;-42
2023/10/09 13:56:58;;;;;;;11.90;5.03;;;23.20;98.40;;;;;;10481422;28;20055;-36
2023/10/09 14:02:02;;;;;;;;;;;23.10;98.10;;;;;;10487952;28;20044;-39
2023/10/09 14:07:06;;;;;;;16.35;5.13;;;22.80;99.90;;;;;;10496016;28;19953;-32
2023/10/09 14:12:09;;;;;;;5.72;3.28;;;23.40;98.40;;;;;;10488262;28;20055;-38
2023/10/09 14:17:12;;;;;;;14.80;4.22;;;22.90;99.90;;;;;;10485385;28;20143;-42
2023/10/09 14:22:16;;;;;;;12.68;4.55;;;22.40;99.90;;;;;;10503195;28;20056;-40
2023/10/09 14:27:18;;;;;;;11.90;3.97;;;22.50;99.90;;;;;;10483257;28;20051;-40
2023/10/09 14:32:20;;;;;;;13.05;3.95;;;22.40;99.90;;;;;;10476625;28;20064;-34
2023/10/09 14:37:24;;;;;;;13.05;4.72;;;22.80;99.90;;;;;;10478219;28;20144;-40
2023/10/09 14:42:27;;;;;;;10.30;3.33;;;23.20;98.50;;;;;;10484985;28;20052;-32
2023/10/09 14:47:29;;;;;;;19.45;4.82;;;24.30;96.20;;;;;;10483107;28;20075;-32
2023/10/09 14:52:33;;;;;;;7.25;3.47;;;23.80;97.00;;;;;;10474708;28;20102;-35
2023/10/09 14:57:35;;;;;;;12.48;4.63;;;23.90;97.30;;;;;;10481928;28;20040;-34
2023/10/09 15:02:36;;;;;;;8.50;3.00;;;23.90;96.50;;;;;;10479132;28;20051;-33
2023/10/09 15:07:40;;;;;;;10.85;4.05;;;24.70;94.70;;;;;;10473428;28;20602;-35
2023/10/09 15:12:46;;;;;;;5.38;2.90;;;24.70;94.40;;;;;;10471935;28;20694;-37
2023/10/09 15:17:48;;;;;;;15.60;4.80;;;25.10;92.90;;;;;;10478653;28;20193;-44
2023/10/09 15:22:51;;;;;;;6.82;2.85;;;24.50;94.40;;;;;;10494461;28;20049;-32
2023/10/09 15:27:53;;;;;;;10.07;3.95;;;24.50;95.30;;;;;;10496873;28;20105;-32
2023/10/09 15:32:56;;;;;;;13.55;5.03;;;24.10;96.20;;;;;;10486794;28;20052;-45
2023/10/09 15:38:03;;;;;;;8.27;3.38;;;23.80;97.70;;;;;;10491503;28;20075;-35
2023/10/09 15:43:05;;;;;;;5.85;3.47;;;23.10;99.90;;;;;;10482206;28;20048;-38
2023/10/09 15:48:07;;;;;;;5.07;3.15;;;23.00;99.90;;;;;;10477190;28;20108;-41
2023/10/09 15:53:10;;;;;;;8.60;3.40;;;24.60;97.00;;;;;;10483730;28;20082;-39
2023/10/09 15:58:12;;;;;;;13.23;4.43;;;23.90;99.90;;;;;;10476774;28;20107;-39
2023/10/09 16:03:14;;;;;;;5.75;3.00;;;23.10;99.90;;;;;;10478070;28;20443;-38
2023/10/09 16:08:19;;;;;;;8.35;3.15;;;24.00;99.00;;;;;;10477552;28;20049;-38
2023/10/09 16:13:21;;;;;;;13.57;4.63;;;23.30;99.80;;;;;;10477598;28;20079;-37
2023/10/09 16:18:23;;;;;;;12.75;3.90;;;23.20;99.90;;;;;;10488496;28;20068;-34
2023/10/09 16:23:27;;;;;;;5.60;3.10;;;22.60;99.90;;;;;;10483469;28;20071;-41
2023/10/09 16:28:29;;;;;;;9.63;3.88;;;23.70;99.90;;;;;;10490283;28;20064;-33
2023/10/09 16:33:31;;;;;;;9.88;3.38;;;23.70;98.30;;;;;;10482991;28;20107;-38
2023/10/09 16:38:39;;;;;;;18.50;5.53;;;23.80;98.90;;;;;;10477664;28;20151;-36
2023/10/09 16:43:42;;;;;;;14.35;3.97;;;21.40;99.90;;;;;;10484111;28;20631;-36
2023/10/09 16:48:47;;;;;;;5.93;2.80;;;22.70;99.90;;;;;;10486730;28;20068;-40
2023/10/09 16:53:51;;;;;;;11.60;3.72;;;24.40;97.40;;;;;;10478688;28;20109;-33
2023/10/09 16:58:54;;;;;;;9.60;3.50;;;24.70;94.60;;;;;;10487650;28;20045;-37
2023/10/09 17:03:57;;;;;;;8.60;3.97;;;24.10;97.80;;;;;;10486562;28;20041;-33
2023/10/09 17:09:02;;;;;;;9.30;3.00;;;24.80;94.80;;;;;;10480894;28;20056;-34
2023/10/09 17:14:12;;;;;;;5.65;2.88;;;24.90;94.70;;;;;;10485592;28;20135;-31
2023/10/09 17:19:14;;;;;;;5.57;3.10;;;24.70;94.80;;;;;;10481081;28;20047;-34
2023/10/09 17:24:20;;;;;;;8.10;2.88;;;25.30;93.40;;;;;;10502081;28;20556;-36
2023/10/09 17:29:22;;;;;;;6.97;2.80;;;25.10;93.80;;;;;;10493517;28;20054;-37
2023/10/09 17:34:26;;;;;;;9.95;2.88;;;25.30;93.00;;;;;;10487954;28;20119;-29
2023/10/09 17:39:30;;;;;;;8.35;3.40;;;25.30;93.20;;;;;;10484464;28;20442;-39
2023/10/09 17:44:32;;;;;;;7.55;3.03;;;25.20;92.80;;;;;;10488992;28;20051;-37
2023/10/09 17:49:36;;;;;;;;;;;25.20;93.50;;;;;;10483736;28;20123;-37
2023/10/09 17:54:40;;;;;;;5.40;2.40;;;25.10;93.10;;;;;;10491124;28;19921;-34
2023/10/09 17:59:42;;;;;;;4.63;2.60;;;25.30;92.90;;;;;;10488760;28;20598;-39
2023/10/09 18:04:44;;;;;;;6.25;2.60;;;25.40;92.80;;;;;;10487412;28;20048;-37
2023/10/09 18:09:51;;;;;;;7.95;2.38;;;25.10;93.30;;;;;;10485878;28;20048;-32
2023/10/09 18:14:54;;;;;;;5.60;2.30;;;25.30;92.90;;;;;;10482079;28;20060;-34
2023/10/09 18:19:57;;;;;;;9.07;3.05;;;25.40;92.50;;;;;;10477395;28;20044;-31
2023/10/09 18:25:00;;;;;;;5.00;2.85;;;25.30;92.80;;;;;;10484772;28;20076;-38
2023/10/09 18:30:04;;;;;;;5.22;2.65;;;25.10;93.50;;;;;;10486644;28;20079;-35
2023/10/09 18:35:09;;;;;;;2.83;2.10;;;25.30;92.60;;;;;;10475308;28;20626;-32
2023/10/09 18:40:16;;;;;;;5.03;2.67;;;25.30;93.00;;;;;;10484165;28;20040;-41
2023/10/09 18:45:18;;;;;;;9.50;3.38;;;25.40;92.50;;;;;;10481139;28;20080;-34
2023/10/09 18:50:21;;;;;;;4.45;2.70;;;25.30;92.20;;;;;;10487433;28;20060;-34
2023/10/09 18:55:26;;;;;;;6.72;2.55;;;25.20;93.10;;;;;;10485706;28;20113;-39
2023/10/09 19:00:31;;;;;;;8.10;2.53;;;25.00;93.60;;;;;;10496536;28;20044;-39
2023/10/09 19:05:32;;;;;;;4.93;2.35;;;25.30;92.70;;;;;;10478193;28;20080;-35
2023/10/09 19:10:37;;;;;;;;;;;25.20;92.70;;;;;;10476396;28;20075;-38
2023/10/09 19:15:39;;;;;;;4.53;2.40;;;25.20;93.00;;;;;;10481303;28;19925;-33
2023/10/09 19:20:42;;;;;;;8.30;3.08;;;25.30;92.50;;;;;;10475637;28;20044;-37
2023/10/09 19:25:46;;;;;;;8.98;2.50;;;25.30;92.40;;;;;;10475784;28;20052;-33
2023/10/09 19:30:49;;;;;;;9.02;2.88;;;25.30;92.20;;;;;;10479162;28;20059;-43
2023/10/09 19:35:51;;;;;;;5.18;2.78;;;25.20;92.70;;;;;;10479969;28;20056;-32
2023/10/09 19:40:55;;;;;;;;;;;24.70;94.00;;;;;;10484008;28;20481;-34
2023/10/09 19:46:02;;;;;;;6.68;2.75;;;24.70;93.50;;;;;;10476091;28;20015;-35
2023/10/09 19:51:06;;;;;;;10.48;2.60;;;25.00;92.60;;;;;;10482034;28;20110;-38
2023/10/09 19:56:10;;;;;;;5.78;2.90;;;25.00;93.20;;;;;;10485234;28;20457;-33
2023/10/09 20:01:13;;;;;;;9.43;3.05;;;25.20;92.50;;;;;;10499777;28;20404;-41
2023/10/09 20:06:17;;;;;;;8.35;2.75;;;25.20;92.40;;;;;;10486639;28;20152;-41
2023/10/09 20:11:22;;;;;;;4.22;2.10;;;25.20;92.20;;;;;;10487638;28;20136;-37
2023/10/09 20:16:26;;;;;;;8.43;2.70;;;25.10;92.30;;;;;;10488540;28;20070;-37
2023/10/09 20:21:28;;;;;;;6.95;2.67;;;25.10;92.20;;;;;;10485617;28;20374;-32
2023/10/09 20:26:31;;;;;;;;;;;25.00;92.60;;;;;;10486777;28;20493;-41
2023/10/09 20:31:33;;;;;;;6.40;2.47;;;25.10;92.30;;;;;;10498610;28;19970;-34
2023/10/09 20:36:40;;;;;;;4.35;2.15;;;25.10;92.10;;;;;;10489348;28;20052;-36
2023/10/09 20:41:45;;;;;;;12.27;2.90;;;25.10;92.00;;;;;;10485960;28;20477;-43
2023/10/09 20:46:48;;;;;;;5.28;2.10;;;25.10;91.90;;;;;;10491670;28;20040;-36
2023/10/09 20:51:50;;;;;;;4.90;2.30;;;25.10;91.90;;;;;;10499731;28;20044;-34
2023/10/09 20:56:53;;;;;;;8.23;2.55;;;25.00;92.00;;;;;;10493187;28;20098;-35
2023/10/09 21:01:55;;;;;;;5.45;2.30;;;25.00;92.00;;;;;;10499386;28;20124;-35
2023/10/09 21:06:56;;;;;;;;;;;25.00;92.00;;;;;;10497952;28;20045;-32
2023/10/09 21:12:00;;;;;;;6.00;2.38;;;25.00;91.90;;;;;;10483101;28;20369;-39
2023/10/09 21:17:02;;;;;;;7.22;3.13;;;25.00;91.80;;;;;;10488669;28;20044;-35
2023/10/09 21:22:04;;;;;;;7.43;2.72;;;25.00;91.90;;;;;;10494017;28;20114;-38
2023/10/09 21:27:08;;;;;;;;;;;25.00;91.90;;;;;;10486532;28;20553;-34
2023/10/09 21:32:12;;;;;;;;;;;25.00;91.90;;;;;;10482916;28;19924;-39
2023/10/09 21:37:14;;;;;;;;;;;25.00;91.90;;;;;;10483029;28;19930;-36
2023/10/09 21:42:17;;;;;;;;;;;25.00;91.90;;;;;;10485464;28;20265;-33
2023/10/09 21:47:19;;;;;;;;;;;25.00;91.80;;;;;;10461828;28;20032;-34
2023/10/09 21:52:20;;;;;;;;;;;24.90;91.80;;;;;;10484566;28;19969;-38
2023/10/09 21:57:23;;;;;;;;;;;24.90;91.80;;;;;;10490295;28;19925;-38
2023/10/09 22:02:26;;;;;;;;;;;24.90;91.80;;;;;;10486176;28;19967;-34
2023/10/09 22:07:29;;;;;;;;;;;24.90;91.70;;;;;;10485804;28;19973;-31
2023/10/09 22:12:32;;;;;;;;;;;24.90;91.70;;;;;;10486520;28;19960;-32
2023/10/09 22:17:34;;;;;;;;;;;24.90;91.80;;;;;;10494915;28;19924;-42
2023/10/09 22:22:37;;;;;;;;;;;24.80;91.80;;;;;;10485934;28;20401;-33
2023/10/09 22:27:41;;;;;;;;;;;24.80;91.80;;;;;;10482937;28;20027;-40
2023/10/09 22:32:42;;;;;;;;;;;24.80;91.80;;;;;;10486823;28;20285;-43
2023/10/09 22:37:44;;;;;;;;;;;24.80;91.80;;;;;;10483556;28;20365;-37
2023/10/09 22:42:49;;;;;;;;;;;24.80;91.70;;;;;;10489281;28;19995;-37
2023/10/09 22:47:51;;;;;;;;;;;24.80;91.70;;;;;;10483665;28;20403;-35
2023/10/09 22:52:53;;;;;;;;;;;24.70;91.80;;;;;;10488069;28;19928;-39
2023/10/09 22:57:56;;;;;;;;;;;24.70;91.80;;;;;;10485570;28;19925;-38
2023/10/09 23:02:58;;;;;;;;;;;24.70;91.80;;;;;;10481985;28;19928;-35
2023/10/09 23:08:00;;;;;;;;;;;24.70;91.80;;;;;;10486904;28;21375;-36
2023/10/09 23:13:15;;;;;;;;;;;24.70;91.80;;;;;;10483138;28;19927;-32
2023/10/09 23:18:32;;;;;;;;;;;24.70;91.80;;;;;;10496491;28;19963;-36
2023/10/09 23:23:36;;;;;;;;;;;24.70;91.80;;;;;;10489340;28;19920;-35
2023/10/09 23:28:50;;;;;;;;;;;24.60;91.70;;;;;;10499096;28;19928;-33
2023/10/09 23:33:55;;;;;;;;;;;24.60;91.80;;;;;;10498620;28;19956;-34
2023/10/09 23:39:13;;;;;;;;;;;24.60;91.80;;;;;;10496960;28;19920;-33
2023/10/09 23:44:20;;;;;;;;;;;24.60;91.80;;;;;;10495234;28;20180;-42
2023/10/09 23:49:25;;;;;;;;;;;24.50;91.80;;;;;;10494163;28;20106;-34
2023/10/09 23:54:27;;;;;;;;;;;24.50;91.80;;;;;;10507237;28;19920;-32
2023/10/09 23:59:39;;;;;;;;;;;24.50;91.90;;;;;;10489600;28;19973;-33
